createdAt,value
2018-04-26T00:00:34.689Z,997.03
2018-04-26T00:01:34.723Z,996.99
2018-04-26T00:02:34.757Z,997.00
2018-04-26T00:03:34.796Z,997.02
2018-04-26T00:04:34.827Z,996.96
2018-04-26T00:05:34.860Z,996.97
2018-04-26T00:06:34.893Z,996.96
2018-04-26T00:07:34.927Z,996.89
2018-04-26T00:08:34.964Z,996.90
2018-04-26T00:09:34.998Z,996.94
2018-04-26T00:10:35.031Z,996.94
2018-04-26T00:11:35.066Z,996.95
2018-04-26T00:12:35.105Z,996.96
2018-04-26T00:13:35.134Z,997.00
2018-04-26T00:14:35.168Z,996.99
2018-04-26T00:15:35.203Z,997.01
2018-04-26T00:16:35.242Z,996.97
2018-04-26T00:17:35.271Z,996.98
2018-04-26T00:18:35.306Z,996.97
2018-04-26T00:19:35.342Z,996.95
2018-04-26T00:20:35.374Z,996.97
2018-04-26T00:21:35.408Z,997.02
2018-04-26T00:22:35.441Z,997.03
2018-04-26T00:23:35.476Z,997.07
2018-04-26T00:24:35.513Z,997.01
2018-04-26T00:25:35.544Z,997.06
2018-04-26T00:26:35.579Z,997.05
2018-04-26T00:27:35.612Z,997.00
2018-04-26T00:28:35.648Z,997.03
2018-04-26T00:29:35.680Z,997.02
2018-04-26T00:30:35.714Z,997.02
2018-04-26T00:31:35.749Z,997.02
2018-04-26T00:32:35.785Z,997.03
2018-04-26T00:33:35.818Z,997.05
2018-04-26T00:34:35.851Z,997.07
2018-04-26T00:35:35.890Z,997.10
2018-04-26T00:36:35.920Z,997.14
2018-04-26T00:37:35.957Z,997.12
2018-04-26T00:38:35.995Z,997.17
2018-04-26T00:39:36.032Z,997.17
2018-04-26T00:40:36.057Z,997.13
2018-04-26T00:41:36.090Z,997.15
2018-04-26T00:42:36.123Z,997.14
2018-04-26T00:43:36.159Z,997.20
2018-04-26T00:44:36.194Z,997.16
2018-04-26T00:45:36.228Z,997.17
2018-04-26T00:46:36.261Z,997.21
2018-04-26T00:47:36.297Z,997.19
2018-04-26T00:48:36.330Z,997.21
2018-04-26T00:49:36.365Z,997.19
2018-04-26T00:50:36.398Z,997.19
2018-04-26T00:51:36.431Z,997.19
2018-04-26T00:52:36.467Z,997.21
2018-04-26T00:53:36.500Z,997.23
2018-04-26T00:54:36.534Z,997.26
2018-04-26T00:55:36.568Z,997.25
2018-04-26T00:56:36.606Z,997.25
2018-04-26T00:57:36.640Z,997.28
2018-04-26T00:58:36.671Z,997.29
2018-04-26T00:59:36.704Z,997.32
2018-04-26T01:00:36.741Z,997.32
2018-04-26T01:01:36.773Z,997.40
2018-04-26T01:02:36.807Z,997.34
2018-04-26T01:03:36.841Z,997.35
2018-04-26T01:04:36.878Z,997.37
2018-04-26T01:05:36.909Z,997.30
2018-04-26T01:06:36.942Z,997.29
2018-04-26T01:07:36.976Z,997.31
2018-04-26T01:08:37.011Z,997.37
2018-04-26T01:09:37.048Z,997.40
2018-04-26T01:10:37.078Z,997.43
2018-04-26T01:11:37.112Z,997.40
2018-04-26T01:12:37.148Z,997.45
2018-04-26T01:13:37.182Z,997.52
2018-04-26T01:14:37.223Z,997.55
2018-04-26T01:15:37.249Z,997.59
2018-04-26T01:16:37.284Z,997.68
2018-04-26T01:17:37.318Z,997.71
2018-04-26T01:18:37.351Z,997.67
2018-04-26T01:19:37.386Z,997.65
2018-04-26T01:20:37.419Z,997.62
2018-04-26T01:21:37.454Z,997.66
2018-04-26T01:22:37.486Z,997.62
2018-04-26T01:23:37.521Z,997.63
2018-04-26T01:24:37.554Z,997.62
2018-04-26T01:25:37.589Z,997.66
2018-04-26T01:26:37.622Z,997.64
2018-04-26T01:27:37.656Z,997.65
2018-04-26T01:28:37.691Z,997.64
2018-04-26T01:29:37.726Z,997.73
2018-04-26T01:30:37.757Z,997.74
2018-04-26T01:31:37.792Z,997.79
2018-04-26T01:32:37.826Z,997.79
2018-04-26T01:33:37.860Z,997.82
2018-04-26T01:34:37.893Z,997.79
2018-04-26T01:35:37.925Z,997.78
2018-04-26T01:36:37.960Z,997.75
2018-04-26T01:37:37.995Z,997.75
2018-04-26T01:38:38.027Z,997.75
2018-04-26T01:39:38.061Z,997.74
2018-04-26T01:40:38.094Z,997.72
2018-04-26T01:41:38.129Z,997.74
2018-04-26T01:42:38.163Z,997.75
2018-04-26T01:43:38.196Z,997.72
2018-04-26T01:44:38.229Z,997.75
2018-04-26T01:45:38.262Z,997.74
2018-04-26T01:46:38.298Z,997.70
2018-04-26T01:47:38.329Z,997.74
2018-04-26T01:48:38.364Z,997.74
2018-04-26T01:49:38.397Z,997.75
2018-04-26T01:50:38.431Z,997.77
2018-04-26T01:51:38.465Z,997.80
2018-04-26T01:52:38.497Z,997.83
2018-04-26T01:53:38.536Z,997.81
2018-04-26T01:54:38.565Z,997.77
2018-04-26T01:55:38.598Z,997.81
2018-04-26T01:56:38.632Z,997.95
2018-04-26T01:57:38.670Z,997.88
2018-04-26T01:58:38.699Z,997.88
2018-04-26T01:59:38.732Z,997.91
2018-04-26T02:00:38.766Z,997.88
2018-04-26T02:01:38.800Z,997.89
2018-04-26T02:02:38.833Z,997.92
2018-04-26T02:03:38.866Z,997.91
2018-04-26T02:04:38.899Z,997.97
2018-04-26T02:05:38.935Z,998.00
2018-04-26T02:06:38.967Z,997.98
2018-04-26T02:07:39.001Z,998.01
2018-04-26T02:08:39.034Z,998.07
2018-04-26T02:09:39.067Z,998.09
2018-04-26T02:10:39.102Z,998.14
2018-04-26T02:11:39.135Z,998.12
2018-04-26T02:12:39.168Z,998.07
2018-04-26T02:13:39.202Z,998.06
2018-04-26T02:14:39.234Z,998.07
2018-04-26T02:15:39.268Z,998.10
2018-04-26T02:16:39.303Z,998.06
2018-04-26T02:17:39.337Z,998.03
2018-04-26T02:18:39.369Z,998.08
2018-04-26T02:19:39.401Z,998.04
2018-04-26T02:20:39.436Z,998.09
2018-04-26T02:21:39.475Z,998.06
2018-04-26T02:22:39.503Z,998.09
2018-04-26T02:23:39.540Z,998.16
2018-04-26T02:24:39.570Z,998.21
2018-04-26T02:25:39.603Z,998.17
2018-04-26T02:26:39.636Z,998.21
2018-04-26T02:27:39.669Z,998.17
2018-04-26T02:28:39.704Z,998.20
2018-04-26T02:29:39.740Z,998.19
2018-04-26T02:30:39.769Z,998.21
2018-04-26T02:31:39.804Z,998.23
2018-04-26T02:32:39.836Z,998.15
2018-04-26T02:33:39.872Z,998.20
2018-04-26T02:34:39.904Z,998.22
2018-04-26T02:35:39.944Z,998.21
2018-04-26T02:36:39.972Z,998.21
2018-04-26T02:37:40.005Z,998.25
2018-04-26T02:38:40.036Z,998.26
2018-04-26T02:39:40.070Z,998.20
2018-04-26T02:40:40.104Z,998.24
2018-04-26T02:41:40.137Z,998.29
2018-04-26T02:42:40.169Z,998.32
2018-04-26T02:43:40.202Z,998.38
2018-04-26T02:44:40.236Z,998.34
2018-04-26T02:45:40.270Z,998.36
2018-04-26T02:46:40.303Z,998.38
2018-04-26T02:47:40.336Z,998.33
2018-04-26T02:48:40.371Z,998.37
2018-04-26T02:49:40.402Z,998.32
2018-04-26T02:50:40.436Z,998.33
2018-04-26T02:51:40.471Z,998.34
2018-04-26T02:52:40.502Z,998.39
2018-04-26T02:53:40.536Z,998.40
2018-04-26T02:54:40.567Z,998.37
2018-04-26T02:55:40.600Z,998.41
2018-04-26T02:56:40.634Z,998.41
2018-04-26T02:57:40.672Z,998.40
2018-04-26T02:58:48.812Z,998.36
2018-04-26T02:59:40.734Z,998.37
2018-04-26T03:00:40.768Z,998.39
2018-04-26T03:01:40.801Z,998.41
2018-04-26T03:02:40.833Z,998.40
2018-04-26T03:03:40.867Z,998.44
2018-04-26T03:04:40.899Z,998.43
2018-04-26T03:05:40.933Z,998.42
2018-04-26T03:06:40.965Z,998.36
2018-04-26T03:07:40.998Z,998.39
2018-04-26T03:08:41.033Z,998.43
2018-04-26T03:09:41.069Z,998.41
2018-04-26T03:10:41.098Z,998.40
2018-04-26T03:11:41.130Z,998.39
2018-04-26T03:12:41.163Z,998.39
2018-04-26T03:13:41.203Z,998.39
2018-04-26T03:14:41.229Z,998.39
2018-04-26T03:15:41.263Z,998.46
2018-04-26T03:16:41.295Z,998.46
2018-04-26T03:17:41.328Z,998.50
2018-04-26T03:18:41.361Z,998.55
2018-04-26T03:19:41.394Z,998.60
2018-04-26T03:20:41.426Z,998.61
2018-04-26T03:21:41.465Z,998.58
2018-04-26T03:22:41.492Z,998.62
2018-04-26T03:23:41.526Z,998.65
2018-04-26T03:24:41.559Z,998.62
2018-04-26T03:25:41.591Z,998.59
2018-04-26T03:26:41.624Z,998.55
2018-04-26T03:27:41.659Z,998.51
2018-04-26T03:28:41.694Z,998.51
2018-04-26T03:29:41.722Z,998.47
2018-04-26T03:30:41.753Z,998.50
2018-04-26T03:31:41.789Z,998.52
2018-04-26T03:32:41.820Z,998.55
2018-04-26T03:33:41.854Z,998.61
2018-04-26T03:34:41.886Z,998.58
2018-04-26T03:35:41.919Z,998.56
2018-04-26T03:36:41.952Z,998.56
2018-04-26T03:37:41.984Z,998.59
2018-04-26T03:38:42.016Z,998.56
2018-04-26T03:39:42.057Z,998.57
2018-04-26T03:40:42.082Z,998.61
2018-04-26T03:41:42.114Z,998.71
2018-04-26T03:42:42.147Z,998.72
2018-04-26T03:43:42.180Z,998.78
2018-04-26T03:44:42.211Z,998.75
2018-04-26T03:45:42.246Z,998.79
2018-04-26T03:46:42.277Z,998.75
2018-04-26T03:47:42.310Z,998.74
2018-04-26T03:48:42.343Z,998.76
2018-04-26T03:49:42.375Z,998.76
2018-04-26T03:50:42.407Z,998.73
2018-04-26T03:51:42.440Z,998.72
2018-04-26T03:52:42.474Z,998.72
2018-04-26T03:53:42.505Z,998.74
2018-04-26T03:54:42.538Z,998.74
2018-04-26T03:55:42.571Z,998.77
2018-04-26T03:56:42.602Z,998.81
2018-04-26T03:57:42.635Z,998.81
2018-04-26T03:58:42.674Z,998.76
2018-04-26T03:59:42.700Z,998.85
2018-04-26T04:00:42.732Z,998.83
2018-04-26T04:01:42.766Z,998.81
2018-04-26T04:02:42.796Z,998.77
2018-04-26T04:03:42.830Z,998.83
2018-04-26T04:04:42.862Z,998.81
2018-04-26T04:05:42.892Z,998.81
2018-04-26T04:06:42.925Z,998.83
2018-04-26T04:07:42.958Z,998.87
2018-04-26T04:08:42.993Z,998.84
2018-04-26T04:09:43.023Z,998.89
2018-04-26T04:10:43.055Z,998.94
2018-04-26T04:11:43.088Z,998.82
2018-04-26T04:12:43.120Z,998.89
2018-04-26T04:13:43.193Z,998.87
2018-04-26T04:14:43.183Z,998.91
2018-04-26T04:15:43.217Z,998.92
2018-04-26T04:16:43.249Z,998.87
2018-04-26T04:17:43.281Z,998.92
2018-04-26T04:18:43.313Z,998.97
2018-04-26T04:19:43.345Z,998.95
2018-04-26T04:20:43.377Z,998.97
2018-04-26T04:21:43.410Z,998.96
2018-04-26T04:22:43.441Z,998.99
2018-04-26T04:23:43.473Z,998.99
2018-04-26T04:24:43.506Z,999.00
2018-04-26T04:25:43.538Z,999.04
2018-04-26T04:26:43.576Z,999.06
2018-04-26T04:27:43.603Z,999.07
2018-04-26T04:28:43.634Z,999.06
2018-04-26T04:29:43.666Z,999.06
2018-04-26T04:30:43.698Z,999.03
2018-04-26T04:31:43.731Z,999.03
2018-04-26T04:32:43.762Z,999.04
2018-04-26T04:33:43.796Z,999.05
2018-04-26T04:34:43.827Z,999.01
2018-04-26T04:35:43.858Z,999.05
2018-04-26T04:36:43.890Z,999.06
2018-04-26T04:37:43.924Z,999.08
2018-04-26T04:38:43.956Z,999.05
2018-04-26T04:39:43.990Z,999.02
2018-04-26T04:40:44.019Z,999.02
2018-04-26T04:41:44.052Z,999.02
2018-04-26T04:42:44.083Z,999.00
2018-04-26T04:43:44.115Z,999.08
2018-04-26T04:44:44.151Z,999.04
2018-04-26T04:45:44.180Z,999.07
2018-04-26T04:46:44.213Z,999.09
2018-04-26T04:47:44.244Z,999.10
2018-04-26T04:48:44.276Z,999.16
2018-04-26T04:49:44.309Z,999.12
2018-04-26T04:50:44.340Z,999.16
2018-04-26T04:51:44.371Z,999.14
2018-04-26T04:52:44.405Z,999.11
2018-04-26T04:53:44.436Z,999.08
2018-04-26T04:54:44.469Z,999.11
2018-04-26T04:55:44.501Z,999.13
2018-04-26T04:56:44.532Z,999.14
2018-04-26T04:57:44.566Z,999.17
2018-04-26T04:58:44.598Z,999.18
2018-04-26T04:59:44.629Z,999.18
2018-04-26T05:00:44.664Z,999.16
2018-04-26T05:01:44.779Z,999.16
2018-04-26T05:02:44.726Z,999.16
2018-04-26T05:03:44.758Z,999.15
2018-04-26T05:04:44.792Z,999.16
2018-04-26T05:05:44.824Z,999.19
2018-04-26T05:06:44.854Z,999.17
2018-04-26T05:07:44.973Z,999.16
2018-04-26T05:08:44.920Z,999.15
2018-04-26T05:09:44.953Z,999.13
2018-04-26T05:10:44.985Z,999.14
2018-04-26T05:11:45.018Z,999.12
2018-04-26T05:12:45.049Z,999.10
2018-04-26T05:13:45.161Z,999.15
2018-04-26T05:14:45.114Z,999.16
2018-04-26T05:15:45.146Z,999.17
2018-04-26T05:16:45.179Z,999.16
2018-04-26T05:17:45.211Z,999.12
2018-04-26T05:18:45.243Z,999.20
2018-04-26T05:19:45.340Z,999.22
2018-04-26T05:20:45.308Z,999.23
2018-04-26T05:21:45.341Z,999.24
2018-04-26T05:22:45.371Z,999.23
2018-04-26T05:23:45.410Z,999.24
2018-04-26T05:24:45.437Z,999.24
2018-04-26T05:25:45.494Z,999.23
2018-04-26T05:26:45.502Z,999.26
2018-04-26T05:27:45.535Z,999.26
2018-04-26T05:28:45.567Z,999.29
2018-04-26T05:29:45.600Z,999.29
2018-04-26T05:30:45.632Z,999.31
2018-04-26T05:31:45.664Z,999.33
2018-04-26T05:32:45.698Z,999.36
2018-04-26T05:33:45.760Z,999.36
2018-04-26T05:34:45.778Z,999.33
2018-04-26T05:35:45.795Z,999.29
2018-04-26T05:36:45.828Z,999.34
2018-04-26T05:37:45.861Z,999.38
2018-04-26T05:38:45.893Z,999.35
2018-04-26T05:39:45.927Z,999.38
2018-04-26T05:40:45.959Z,999.43
2018-04-26T05:41:45.992Z,999.42
2018-04-26T05:42:46.025Z,999.47
2018-04-26T05:43:46.059Z,999.41
2018-04-26T05:44:46.091Z,999.42
2018-04-26T05:45:46.125Z,999.40
2018-04-26T05:46:46.158Z,999.35
2018-04-26T05:47:46.190Z,999.32
2018-04-26T05:48:46.227Z,999.39
2018-04-26T05:49:46.257Z,999.39
2018-04-26T05:50:46.290Z,999.39
2018-04-26T05:51:46.323Z,999.34
2018-04-26T05:52:46.356Z,999.38
2018-04-26T05:53:46.389Z,999.37
2018-04-26T05:54:46.422Z,999.36
2018-04-26T05:55:46.469Z,999.38
2018-04-26T05:56:46.489Z,999.36
2018-04-26T05:57:46.524Z,999.38
2018-04-26T05:58:46.558Z,999.40
2018-04-26T05:59:46.589Z,999.48
2018-04-26T06:00:46.621Z,999.44
2018-04-26T06:01:46.655Z,999.44
2018-04-26T06:02:46.689Z,999.47
2018-04-26T06:03:46.773Z,999.51
2018-04-26T06:04:46.754Z,999.55
2018-04-26T06:05:46.787Z,999.53
2018-04-26T06:06:46.819Z,999.55
2018-04-26T06:07:46.854Z,999.52
2018-04-26T06:08:46.885Z,999.54
2018-04-26T06:09:46.918Z,999.56
2018-04-26T06:10:46.950Z,999.57
2018-04-26T06:11:46.984Z,999.61
2018-04-26T06:12:47.016Z,999.58
2018-04-26T06:13:47.049Z,999.60
2018-04-26T06:14:47.102Z,999.63
2018-04-26T06:15:47.116Z,999.62
2018-04-26T06:16:47.219Z,999.62
2018-04-26T06:17:47.265Z,999.66
2018-04-26T06:18:47.215Z,999.61
2018-04-26T06:19:47.248Z,999.70
2018-04-26T06:20:47.281Z,999.74
2018-04-26T06:21:47.314Z,999.79
2018-04-26T06:22:47.346Z,999.74
2018-04-26T06:23:47.381Z,999.71
2018-04-26T06:24:47.412Z,999.73
2018-04-26T06:25:47.447Z,999.78
2018-04-26T06:26:47.477Z,999.81
2018-04-26T06:27:47.511Z,999.85
2018-04-26T06:28:47.543Z,999.86
2018-04-26T06:29:47.580Z,999.90
2018-04-26T06:30:47.609Z,999.85
2018-04-26T06:31:47.644Z,999.86
2018-04-26T06:32:47.675Z,999.87
2018-04-26T06:33:47.708Z,999.85
2018-04-26T06:34:47.740Z,999.91
2018-04-26T06:35:47.773Z,999.94
2018-04-26T06:36:47.878Z,999.94
2018-04-26T06:37:47.840Z,999.93
2018-04-26T06:38:47.871Z,999.96
2018-04-26T06:39:47.908Z,999.98
2018-04-26T06:40:47.936Z,1000.02
2018-04-26T06:41:47.968Z,1000.01
2018-04-26T06:42:48.000Z,1000.03
2018-04-26T06:43:48.033Z,1000.04
2018-04-26T06:44:48.066Z,1000.09
2018-04-26T06:45:48.100Z,1000.09
2018-04-26T06:46:48.131Z,1000.06
2018-04-26T06:47:48.224Z,1000.08
2018-04-26T06:48:48.196Z,1000.12
2018-04-26T06:49:48.230Z,1000.15
2018-04-26T06:50:48.261Z,1000.11
2018-04-26T06:51:48.294Z,1000.15
2018-04-26T06:52:48.327Z,1000.16
2018-04-26T06:53:48.360Z,1000.16
2018-04-26T06:54:48.392Z,1000.17
2018-04-26T06:55:48.429Z,1000.16
2018-04-26T06:56:48.458Z,1000.15
2018-04-26T06:57:48.493Z,1000.17
2018-04-26T06:58:48.525Z,1000.18
2018-04-26T06:59:48.556Z,1000.21
2018-04-26T07:00:48.590Z,1000.19
2018-04-26T07:01:48.622Z,1000.18
2018-04-26T07:02:48.655Z,1000.20
2018-04-26T07:03:48.688Z,1000.20
2018-04-26T07:04:48.721Z,1000.19
2018-04-26T07:05:48.757Z,1000.24
2018-04-26T07:06:48.786Z,1000.25
2018-04-26T07:07:48.820Z,1000.26
2018-04-26T07:08:48.852Z,1000.30
2018-04-26T07:09:48.886Z,1000.29
2018-04-26T07:10:48.918Z,1000.30
2018-04-26T07:11:48.955Z,1000.27
2018-04-26T07:12:48.984Z,1000.27
2018-04-26T07:13:49.017Z,1000.30
2018-04-26T07:14:49.048Z,1000.29
2018-04-26T07:15:49.081Z,1000.27
2018-04-26T07:16:49.115Z,1000.26
2018-04-26T07:17:49.148Z,1000.28
2018-04-26T07:18:49.185Z,1000.24
2018-04-26T07:19:49.214Z,1000.29
2018-04-26T07:20:49.249Z,1000.29
2018-04-26T07:21:49.318Z,1000.28
2018-04-26T07:22:49.312Z,1000.29
2018-04-26T07:23:49.346Z,1000.33
2018-04-26T07:24:49.379Z,1000.34
2018-04-26T07:25:49.412Z,1000.38
2018-04-26T07:26:49.445Z,1000.36
2018-04-26T07:27:49.479Z,1000.35
2018-04-26T07:28:49.512Z,1000.31
2018-04-26T07:29:49.546Z,1000.32
2018-04-26T07:30:49.578Z,1000.34
2018-04-26T07:31:49.610Z,1000.30
2018-04-26T07:32:49.644Z,1000.33
2018-04-26T07:33:49.678Z,1000.37
2018-04-26T07:34:49.788Z,1000.38
2018-04-26T07:35:49.744Z,1000.40
2018-04-26T07:36:49.777Z,1000.40
2018-04-26T07:37:49.811Z,1000.39
2018-04-26T07:38:49.843Z,1000.46
2018-04-26T07:39:49.879Z,1000.47
2018-04-26T07:40:49.911Z,1000.47
2018-04-26T07:41:49.944Z,1000.46
2018-04-26T07:42:49.977Z,1000.52
2018-04-26T07:43:50.013Z,1000.53
2018-04-26T07:44:50.085Z,1000.58
2018-04-26T07:45:50.080Z,1000.51
2018-04-26T07:46:50.113Z,1000.53
2018-04-26T07:47:50.146Z,1000.58
2018-04-26T07:48:50.181Z,1000.56
2018-04-26T07:49:50.214Z,1000.45
2018-04-26T07:50:50.251Z,1000.43
2018-04-26T07:51:50.282Z,1000.37
2018-04-26T07:52:50.316Z,1000.40
2018-04-26T07:53:50.350Z,1000.40
2018-04-26T07:54:50.383Z,1000.39
2018-04-26T07:55:50.424Z,1000.40
2018-04-26T07:56:50.452Z,1000.44
2018-04-26T07:57:50.486Z,1000.38
2018-04-26T07:58:50.521Z,1000.47
2018-04-26T07:59:50.555Z,1000.39
2018-04-26T08:00:50.590Z,1000.47
2018-04-26T08:01:50.687Z,1000.43
2018-04-26T08:02:50.658Z,1000.45
2018-04-26T08:03:50.691Z,1000.45
2018-04-26T08:04:50.727Z,1000.51
2018-04-26T08:05:50.761Z,1000.44
2018-04-26T08:06:50.795Z,1000.42
2018-04-26T08:07:50.830Z,1000.41
2018-04-26T08:08:50.864Z,1000.41
2018-04-26T08:09:50.899Z,1000.43
2018-04-26T08:10:50.941Z,1000.41
2018-04-26T08:11:51.009Z,1000.48
2018-04-26T08:12:51.003Z,1000.50
2018-04-26T08:13:51.037Z,1000.52
2018-04-26T08:14:51.071Z,1000.50
2018-04-26T08:15:51.107Z,1000.54
2018-04-26T08:16:51.141Z,1000.59
2018-04-26T08:17:51.175Z,1000.62
2018-04-26T08:18:51.211Z,1000.65
2018-04-26T08:19:51.245Z,1000.62
2018-04-26T08:20:51.280Z,1000.59
2018-04-26T08:21:51.316Z,1000.59
2018-04-26T08:22:51.349Z,1000.59
2018-04-26T08:23:51.385Z,1000.57
2018-04-26T08:24:51.419Z,1000.55
2018-04-26T08:25:51.457Z,1000.56
2018-04-26T08:26:51.488Z,1000.56
2018-04-26T08:27:51.525Z,1000.53
2018-04-26T08:28:51.559Z,1000.56
2018-04-26T08:29:51.594Z,1000.62
2018-04-26T08:30:51.628Z,1000.57
2018-04-26T08:31:51.663Z,1000.64
2018-04-26T08:32:51.699Z,1000.58
2018-04-26T08:33:51.735Z,1000.66
2018-04-26T08:34:51.768Z,1000.62
2018-04-26T08:35:51.803Z,1000.67
2018-04-26T08:36:51.862Z,1000.63
2018-04-26T08:37:51.873Z,1000.68
2018-04-26T08:38:51.908Z,1000.68
2018-04-26T08:39:52.041Z,1000.67
2018-04-26T08:40:51.978Z,1000.70
2018-04-26T08:41:52.011Z,1000.75
2018-04-26T08:42:52.047Z,1000.78
2018-04-26T08:43:52.081Z,1000.75
2018-04-26T08:44:52.117Z,1000.79
2018-04-26T08:45:52.151Z,1000.78
2018-04-26T08:46:52.186Z,1000.82
2018-04-26T08:47:52.220Z,1000.80
2018-04-26T08:48:52.256Z,1000.82
2018-04-26T08:49:52.291Z,1000.81
2018-04-26T08:50:52.330Z,1000.86
2018-04-26T08:51:52.359Z,1000.84
2018-04-26T08:52:52.395Z,1000.91
2018-04-26T08:53:52.430Z,1000.93
2018-04-26T08:54:52.464Z,1000.90
2018-04-26T08:55:52.499Z,1000.90
2018-04-26T08:56:52.534Z,1000.87
2018-04-26T08:57:52.569Z,1000.86
2018-04-26T08:58:52.604Z,1000.86
2018-04-26T08:59:52.638Z,1000.89
2018-04-26T09:00:52.673Z,1000.83
2018-04-26T09:01:52.708Z,1000.85
2018-04-26T09:02:52.749Z,1000.90
2018-04-26T09:03:52.777Z,1000.88
2018-04-26T09:04:52.817Z,1000.87
2018-04-26T09:05:52.849Z,1000.92
2018-04-26T09:06:52.913Z,1000.88
2018-04-26T09:07:52.919Z,1000.85
2018-04-26T09:08:52.954Z,1000.93
2018-04-26T09:09:52.993Z,1001.05
2018-04-26T09:10:53.027Z,1001.06
2018-04-26T09:11:53.059Z,1000.93
2018-04-26T09:12:53.095Z,1000.99
2018-04-26T09:13:53.133Z,1000.95
2018-04-26T09:14:53.165Z,1001.00
2018-04-26T09:15:53.203Z,1001.01
2018-04-26T09:16:53.237Z,1001.00
2018-04-26T09:17:53.272Z,1000.89
2018-04-26T09:18:53.307Z,1000.92
2018-04-26T09:19:53.342Z,1000.98
2018-04-26T09:20:53.379Z,1000.96
2018-04-26T09:21:53.416Z,1000.95
2018-04-26T09:22:53.450Z,1000.96
2018-04-26T09:23:53.485Z,1000.89
2018-04-26T09:24:53.524Z,1000.86
2018-04-26T09:25:53.558Z,1000.86
2018-04-26T09:26:53.600Z,1000.88
2018-04-26T09:27:53.630Z,1000.89
2018-04-26T09:28:53.667Z,1000.93
2018-04-26T09:29:53.702Z,1000.90
2018-04-26T09:30:53.739Z,1000.91
2018-04-26T09:31:53.776Z,1000.92
2018-04-26T09:32:53.817Z,1000.91
2018-04-26T09:33:53.850Z,1000.87
2018-04-26T09:34:53.885Z,1000.99
2018-04-26T09:35:53.922Z,1000.98
2018-04-26T09:36:53.960Z,1000.95
2018-04-26T09:37:53.998Z,1000.99
2018-04-26T09:38:54.033Z,1000.95
2018-04-26T09:39:54.072Z,1000.79
2018-04-26T09:40:54.108Z,1000.91
2018-04-26T09:41:54.146Z,1000.86
2018-04-26T09:42:54.185Z,1000.79
2018-04-26T09:43:54.220Z,1000.88
2018-04-26T09:44:54.258Z,1000.90
2018-04-26T09:45:54.296Z,1000.89
2018-04-26T09:46:54.333Z,1000.89
2018-04-26T09:47:54.371Z,1000.92
2018-04-26T09:48:54.410Z,1000.97
2018-04-26T09:49:54.448Z,1001.05
2018-04-26T09:50:54.487Z,1001.05
2018-04-26T09:51:54.527Z,1001.04
2018-04-26T09:52:54.567Z,1001.12
2018-04-26T09:53:54.606Z,1001.06
2018-04-26T09:54:54.647Z,1001.03
2018-04-26T09:55:54.690Z,1001.08
2018-04-26T09:56:54.732Z,1001.19
2018-04-26T09:57:54.777Z,1001.25
2018-04-26T09:58:54.816Z,1001.35
2018-04-26T09:59:54.859Z,1001.42
2018-04-26T10:00:54.903Z,1001.45
2018-04-26T10:01:54.947Z,1001.47
2018-04-26T10:02:54.991Z,1001.53
2018-04-26T10:03:55.036Z,1001.45
2018-04-26T10:04:55.082Z,1001.54
2018-04-26T10:05:55.125Z,1001.50
2018-04-26T10:06:55.170Z,1001.58
2018-04-26T10:07:55.218Z,1001.55
2018-04-26T10:08:55.262Z,1001.54
2018-04-26T10:09:55.317Z,1001.63
2018-04-26T10:10:55.353Z,1001.61
2018-04-26T10:11:55.400Z,1001.65
2018-04-26T10:12:55.448Z,1001.63
2018-04-26T10:13:55.495Z,1001.66
2018-04-26T10:14:55.541Z,1001.79
2018-04-26T10:15:55.590Z,1001.71
2018-04-26T10:16:55.681Z,1001.70
2018-04-26T10:17:55.685Z,1001.68
2018-04-26T10:18:55.734Z,1001.65
2018-04-26T10:19:55.783Z,1001.65
2018-04-26T10:20:55.831Z,1001.63
2018-04-26T10:21:55.881Z,1001.63
2018-04-26T10:22:55.929Z,1001.63
2018-04-26T10:23:55.978Z,1001.54
2018-04-26T10:24:56.031Z,1001.56
2018-04-26T10:25:56.077Z,1001.52
2018-04-26T10:26:56.125Z,1001.55
2018-04-26T10:27:56.176Z,1001.53
2018-04-26T10:28:56.228Z,1001.54
2018-04-26T10:29:56.357Z,1001.54
2018-04-26T10:30:56.325Z,1001.52
2018-04-26T10:31:56.376Z,1001.54
2018-04-26T10:32:56.428Z,1001.56
2018-04-26T10:33:56.476Z,1001.63
2018-04-26T10:34:56.526Z,1001.49
2018-04-26T10:35:56.577Z,1001.53
2018-04-26T10:36:56.628Z,1001.63
2018-04-26T10:37:56.679Z,1001.71
2018-04-26T10:38:56.729Z,1001.78
2018-04-26T10:39:56.780Z,1001.61
2018-04-26T10:40:56.831Z,1000.40
2018-04-26T10:41:56.886Z,1000.36
2018-04-26T10:42:56.933Z,1000.34
2018-04-26T10:43:56.982Z,1001.84
2018-04-26T10:44:57.035Z,1000.67
2018-04-26T10:45:57.081Z,1000.78
2018-04-26T10:46:57.130Z,1001.89
2018-04-26T10:47:57.180Z,1001.84
2018-04-26T10:48:57.229Z,1001.83
2018-04-26T10:49:57.277Z,1001.77
2018-04-26T10:50:57.327Z,1000.36
2018-04-26T10:51:57.378Z,1001.56
2018-04-26T10:52:57.427Z,1001.83
2018-04-26T10:53:57.475Z,1001.76
2018-04-26T10:54:57.522Z,1001.80
2018-04-26T10:55:57.570Z,1001.79
2018-04-26T10:56:57.619Z,1001.84
2018-04-26T10:57:57.669Z,1001.84
2018-04-26T10:58:57.718Z,1001.63
2018-04-26T10:59:57.767Z,1001.92
2018-04-26T11:00:57.821Z,1000.34
2018-04-26T11:01:57.868Z,1000.35
2018-04-26T11:02:57.917Z,1000.33
2018-04-26T11:03:57.967Z,1000.37
2018-04-26T11:04:58.016Z,1000.51
2018-04-26T11:05:58.064Z,1001.94
2018-04-26T11:06:58.113Z,1001.95
2018-04-26T11:07:58.166Z,1000.73
2018-04-26T11:08:58.210Z,1001.96
2018-04-26T11:09:58.258Z,1001.88
2018-04-26T11:10:58.307Z,1001.71
2018-04-26T11:11:58.359Z,1000.20
2018-04-26T11:12:58.404Z,1000.26
2018-04-26T11:13:58.453Z,1000.23
2018-04-26T11:14:58.502Z,1000.27
2018-04-26T11:15:58.550Z,1001.30
2018-04-26T11:16:58.599Z,1001.48
2018-04-26T11:17:58.647Z,1001.50
2018-04-26T11:18:58.696Z,1001.70
2018-04-26T11:19:58.742Z,1001.68
2018-04-26T11:20:58.791Z,1001.60
2018-04-26T11:21:58.839Z,1001.63
2018-04-26T11:22:58.887Z,1001.67
2018-04-26T11:23:58.936Z,1001.66
2018-04-26T11:24:58.985Z,1001.61
2018-04-26T11:25:59.035Z,1001.66
2018-04-26T11:26:59.083Z,1001.68
2018-04-26T11:27:59.133Z,1001.69
2018-04-26T11:28:59.183Z,1001.79
2018-04-26T11:29:59.234Z,1001.80
2018-04-26T11:30:59.372Z,1001.66
2018-04-26T11:31:59.340Z,1000.19
2018-04-26T11:32:59.385Z,1001.80
2018-04-26T11:33:59.437Z,1000.04
2018-04-26T11:34:59.486Z,1000.15
2018-04-26T11:35:59.537Z,1000.16
2018-04-26T11:36:59.588Z,1000.01
2018-04-26T11:37:59.638Z,1000.04
2018-04-26T11:38:59.690Z,1000.04
2018-04-26T11:39:59.736Z,1000.06
2018-04-26T11:40:59.786Z,1000.03
2018-04-26T11:41:59.834Z,1000.09
2018-04-26T11:42:59.880Z,1000.03
2018-04-26T11:43:59.927Z,1000.04
2018-04-26T11:44:59.975Z,999.99
2018-04-26T11:46:00.023Z,1000.03
2018-04-26T11:47:00.067Z,1000.74
2018-04-26T11:48:00.113Z,1000.07
2018-04-26T11:49:00.163Z,1001.70
2018-04-26T11:50:00.204Z,1001.76
2018-04-26T11:51:00.248Z,1001.59
2018-04-26T11:52:00.295Z,1001.65
2018-04-26T11:53:00.340Z,1001.55
2018-04-26T11:54:00.385Z,1001.53
2018-04-26T11:55:00.430Z,1001.53
2018-04-26T11:56:00.477Z,1001.59
2018-04-26T11:57:00.525Z,1001.55
2018-04-26T11:58:00.573Z,1001.54
2018-04-26T11:59:00.619Z,1001.55
2018-04-26T12:00:00.671Z,1001.49
2018-04-26T12:01:00.719Z,1001.52
2018-04-26T12:02:00.765Z,1001.62
2018-04-26T12:03:00.813Z,1001.63
2018-04-26T12:04:00.863Z,1001.56
2018-04-26T12:05:00.917Z,1001.59
2018-04-26T12:06:00.962Z,1001.75
2018-04-26T12:07:01.012Z,1001.52
2018-04-26T12:08:01.063Z,1001.67
2018-04-26T12:09:01.114Z,1001.77
2018-04-26T12:10:01.167Z,1001.35
2018-04-26T12:11:01.215Z,1001.24
2018-04-26T12:12:01.267Z,1000.59
2018-04-26T12:13:01.318Z,999.81
2018-04-26T12:14:01.369Z,1001.57
2018-04-26T12:15:01.420Z,1001.49
2018-04-26T12:16:01.471Z,1001.48
2018-04-26T12:17:01.523Z,1001.48
2018-04-26T12:18:01.574Z,1001.47